Nearby METAR Reports

 

KSEE - San Diego/Santee, California, USA
Distance from station: E 4mi, 6km
Updated: 10/19/2019 3:47pm
Clear
Clear
 Wind from W
Wind: W 9 mph , 15 km/h
Temperature: 79°F , 26°C
Dew Point: 39°F , 4°C
Humidity: 24%
Barometer: 29.86 inHg , 1011.2 hPa
Clouds: Clear
Visibility: 10 miles , 16 km
2019/10/19 22:47 KSEE 192247Z 26008KT 10SM SKC 26/04 A2986
KMYF - San Diego/Mntgmy, California, USA
Distance from station: W 6mi, 10km
Updated: 10/19/2019 3:53pm
Clear
Clear
 Wind from WSW
Wind: WSW 9 mph , 15 km/h
Temperature: 75°F , 24°C
Dew Point: 57°F , 14°C
Humidity: 54%
Barometer: 29.87 inHg , 1011.5 hPa
Clouds: Clear
Visibility: 10 miles , 16 km
2019/10/19 22:53 KMYF 192253Z 24008KT 10SM CLR 24/14 A2987 RMK AO2 SLP111 T02390144
 
KNKX - Miramar Nas/San, California, USA
Distance from station: WNW 7mi, 11km
Updated: 10/19/2019 3:55pm
Clear
Clear
 Wind from W
Wind: W 8 mph , 13 km/h
Temperature: 77°F , 25°C
Dew Point: 52°F , 11°C
Humidity: 42%
Barometer: 29.87 inHg , 1011.5 hPa
Clouds: Clear
Visibility: 10 miles , 16 km
2019/10/19 22:55 KNKX 192255Z 28007KT 10SM CLR 25/11 A2987 RMK AO2 SLP109 T02500111 $
KSAN - San Diego, California, USA
Distance from station: WSW 11mi, 17km
Updated: 10/19/2019 3:51pm
Few Clouds
Few Clouds
 Wind from WNW
Wind: WNW 7 mph , 11 km/h
Temperature: 73°F , 23°C
Dew Point: 57°F , 14°C
Humidity: 57%
Barometer: 29.88 inHg , 1011.9 hPa
Clouds: Few Clouds
Visibility: 10 miles , 16 km
Cloud details: Few Clouds 20000 ft
2019/10/19 22:51 KSAN 192251Z 30006KT 10SM FEW200 23/14 A2988 RMK AO2 SLP117 T02330139
 
KNZY - North Island Nas, California, USA
Distance from station: SW 13mi, 22km
Updated: 10/19/2019 3:52pm
Few Clouds
Few Clouds
 Wind from WNW
Wind: WNW 7 mph , 11 km/h
Temperature: 72°F , 22°C
Dew Point: 59°F , 15°C
Humidity: 65%
Barometer: 29.86 inHg , 1011.2 hPa
Clouds: Few Clouds
Visibility: 10 miles , 16 km
Cloud details: Few Clouds 25000 ft
2019/10/19 22:52 KNZY 192252Z 29006KT 10SM FEW250 22/15 A2986 RMK AO2 SLP111 T02170150
KRNM - Ramona, California, USA
Distance from station: NNE 16mi, 26km
Updated: 10/19/2019 3:53pm
Clear
Clear
 Wind from W
Wind: W 13 mph , 20 km/h
Temperature: 77°F , 25°C
Dew Point: 36°F , 2°C
Humidity: 22%
Barometer: 29.88 inHg , 1011.9 hPa
Clouds: Clear
Visibility: 10 miles , 16 km
2019/10/19 22:53 KRNM 192253Z 27011KT 10SM CLR 25/02 A2988 RMK AO2 SLP107 T02500022
 
KSDM - San Diego/Brown, California, USA
Distance from station: S 16mi, 26km
Updated: 10/19/2019 3:53pm
Clear
Clear
 Wind from WSW
Wind: WSW 8 mph , 13 km/h
Temperature: 73°F , 23°C
Dew Point: 52°F , 11°C
Humidity: 47%
Barometer: 29.86 inHg , 1011.2 hPa
Clouds: Clear
Visibility: 10 miles , 16 km
2019/10/19 22:53 KSDM 192253Z 25007KT 10SM CLR 23/11 A2986 RMK AO2 SLP108 T02330106
KNRS - Imperial Beach, California, USA
Distance from station: SSW 18mi, 29km
Updated: 10/19/2019 3:56pm
Clear
Clear
 
Barometer: 29.87 inHg , 1011.5 hPa
Clouds: Clear
Visibility: 10 miles , 16 km
2019/10/19 22:56 KNRS 192256Z AUTO 10SM CLR A2987 RMK AO2 SLP116 $
 
MMTJ - Tijuana Intl Arp, Mexico
Distance from station: S 20mi, 32km
Updated: 10/19/2019 3:44pm
Clear
Clear
 Wind from W
Wind: W 8 mph , 13 km/h
Temperature: 73°F , 23°C
Dew Point: 48°F , 9°C
Humidity: 41%
Barometer: 29.89 inHg , 1012.2 hPa
Clouds: Clear
Visibility: 10 miles , 16 km
2019/10/19 22:44 MMTJ 192244Z 28007KT 10SM SKC 23/09 A2989 RMK HZY ISOL SC
KCRQ - Carlsbad, California, USA
Distance from station: NW 26mi, 43km
Updated: 10/19/2019 3:53pm
Clear
Clear
 Wind from WSW
Wind: WSW 8 mph , 13 km/h
Temperature: 70°F , 21°C
Dew Point: 57°F , 14°C
Humidity: 64%
Barometer: 29.86 inHg , 1011.2 hPa
Clouds: Clear
Visibility: 10 miles , 16 km
2019/10/19 22:53 KCRQ 192253Z 25007KT 10SM CLR 21/14 A2986 RMK AO2 SLP108 T02110139
 
KOKB - Oceanside, California, USA
Distance from station: NW 33mi, 54km
Updated: 10/19/2019 3:52pm
Clear
Clear
 Wind from WSW
Wind: WSW 8 mph , 13 km/h
Temperature: 73°F , 23°C
Dew Point: 57°F , 14°C
Humidity: 57%
Barometer: 29.86 inHg , 1011.2 hPa
Clouds: Clear
Visibility: 9 miles , 14 km
2019/10/19 22:52 KOKB 192252Z AUTO 25007KT 9SM CLR 23/14 A2986 RMK AO2 SLP109 T02280144
KCZZ - Campo, California, USA
Distance from station: ESE 35mi, 56km
Updated: 10/19/2019 3:52pm

 Wind from W
Wind: W 13 mph , 20 km/h, Gust: 23 mph , 37 km/h
Temperature: 77°F , 25°C
Dew Point: 32°F , 0°C
Humidity: 19%
Barometer: 29.88 inHg , 1011.9 hPa
2019/10/19 22:52 KCZZ 192252Z AUTO 26011G20KT 25/00 A2988 RMK AO1 SLP093 T02500000
 
KNFG - Camp Pendleton, California, USA
Distance from station: NNW 37mi, 59km
Updated: 10/19/2019 3:55pm
Clear
Clear
 Wind from SW
Wind: SW 8 mph , 13 km/h
Temperature: 73°F , 23°C
Dew Point: 54°F , 12°C
Humidity: 50%
Barometer: 29.85 inHg , 1010.8 hPa
Clouds: Clear
Visibility: 10 miles , 16 km
2019/10/19 22:55 KNFG 192255Z AUTO 23007KT 10SM CLR 23/12 A2985 RMK AO2 SLP109 T02280122
KRIV - Riverside/March, California, USA
Distance from station: N 74mi, 119km
Updated: 10/19/2019 3:58pm
Clear
Clear
 Wind from WNW
Wind: WNW 14 mph , 22 km/h
Temperature: 81°F , 27°C
Dew Point: 41°F , 5°C
Humidity: 24%
Barometer: 29.89 inHg , 1012.2 hPa
Clouds: Clear
Visibility: 10 miles , 16 km
2019/10/19 22:58 KRIV 192258Z AUTO 30012KT 10SM CLR 27/05 A2989 RMK AO2 SLP115 T02690052
 
KTRM - Thermal/Palm Spg, California, USA
Distance from station: NE 75mi, 121km
Updated: 10/19/2019 3:52pm
Clear
Clear
 Wind from SE
Wind: SE 6 mph , 9 km/h
Temperature: 88°F , 31°C
Dew Point: 27°F , -3°C
Humidity: 11%
Barometer: 29.76 inHg , 1007.8 hPa
Clouds: Clear
Visibility: 10 miles , 16 km
2019/10/19 22:52 KTRM 192252Z AUTO 13005KT 10SM CLR 31/M03 A2976 RMK AO2 SLP079 T03111033 $
KPSP - Palm Springs, California, USA
Distance from station: NNE 76mi, 122km
Updated: 10/19/2019 3:53pm
Clear
Clear
 Wind from E
Wind: E 7 mph , 11 km/h
Temperature: 90°F , 32°C
Dew Point: 25°F , -4°C
Humidity: 9%
Barometer: 29.80 inHg , 1009.1 hPa
Clouds: Clear
Visibility: 10 miles , 16 km
2019/10/19 22:53 KPSP 192253Z 09006KT 10SM CLR 32/M04 A2980 RMK AO2 SLP087 T03171044
 
KSNA - Costa Mesa, California, USA
Distance from station: NW 76mi, 123km
Updated: 10/19/2019 3:53pm
Few Clouds
Few Clouds
 Wind from SW
Wind: SW 6 mph , 9 km/h
Temperature: 75°F , 24°C
Dew Point: 52°F , 11°C
Humidity: 44%
Barometer: 29.87 inHg , 1011.5 hPa
Clouds: Few Clouds
Visibility: 10 miles , 16 km
Cloud details: Few Clouds 25000 ft
2019/10/19 22:53 KSNA 192253Z 23005KT 10SM FEW250 24/11 A2987 RMK AO2 SLP114 T02440111
KNJK - El Centro Naf, California, USA
Distance from station: E 79mi, 127km
Updated: 10/19/2019 3:56pm
Clear
Clear
 Wind from calm
Wind: Calm
Temperature: 88°F , 31°C
Dew Point: 19°F , -7°C
Humidity: 8%
Barometer: 29.79 inHg , 1008.8 hPa
Clouds: Clear
Visibility: 10 miles , 16 km
2019/10/19 22:56 KNJK 192256Z AUTO 00000KT 10SM CLR 31/M07 A2979 RMK AO2 SLP102 T03111067 $
 
KAJO - Corona Muni, California, USA
Distance from station: NNW 82mi, 132km
Updated: 10/19/2019 3:56pm
Clear
Clear
 Wind from W
Wind: W 10 mph , 17 km/h, Gust: 17 mph , 28 km/h
Temperature: 79°F , 26°C
Dew Point: 54°F , 12°C
Humidity: 42%
Barometer: 29.87 inHg , 1011.5 hPa
Clouds: Clear
Visibility: 10 miles , 16 km
2019/10/19 22:56 KAJO 192256Z AUTO 27009G15KT 10SM CLR 26/12 A2987 RMK AO2 SLPNO T02610117